sensor_id;sensor_type;location;lat;lon;timestamp;P1;durP1;ratioP1;P2;durP2;ratioP2
63394;SDS011;49531;-34.520;150.798;2022-11-11T00:01:14;7.03;;;2.20;;
63394;SDS011;49531;-34.520;150.798;2022-11-11T00:03:43;6.22;;;2.03;;
63394;SDS011;49531;-34.520;150.798;2022-11-11T00:06:12;5.38;;;2.22;;
63394;SDS011;49531;-34.520;150.798;2022-11-11T00:08:42;7.15;;;2.28;;
63394;SDS011;49531;-34.520;150.798;2022-11-11T00:11:13;3.83;;;1.80;;
63394;SDS011;49531;-34.520;150.798;2022-11-11T00:13:42;8.60;;;2.00;;
63394;SDS011;49531;-34.520;150.798;2022-11-11T00:16:12;4.70;;;1.90;;
63394;SDS011;49531;-34.520;150.798;2022-11-11T00:18:43;4.38;;;1.67;;
63394;SDS011;49531;-34.520;150.798;2022-11-11T00:21:24;6.55;;;1.65;;
63394;SDS011;49531;-34.520;150.798;2022-11-11T00:24:26;4.60;;;1.70;;
63394;SDS011;49531;-34.520;150.798;2022-11-11T00:27:06;4.28;;;1.67;;
63394;SDS011;49531;-34.520;150.798;2022-11-11T00:29:35;4.43;;;1.55;;
63394;SDS011;49531;-34.520;150.798;2022-11-11T00:32:06;3.65;;;1.50;;
63394;SDS011;49531;-34.520;150.798;2022-11-11T00:34:47;4.90;;;1.17;;
63394;SDS011;49531;-34.520;150.798;2022-11-11T00:37:28;5.53;;;1.40;;
63394;SDS011;49531;-34.520;150.798;2022-11-11T00:39:57;6.97;;;1.30;;
63394;SDS011;49531;-34.520;150.798;2022-11-11T00:42:26;3.33;;;1.40;;
63394;SDS011;49531;-34.520;150.798;2022-11-11T00:44:54;5.10;;;1.02;;
63394;SDS011;49531;-34.520;150.798;2022-11-11T00:47:22;2.72;;;1.23;;
63394;SDS011;49531;-34.520;150.798;2022-11-11T00:50:03;2.42;;;1.33;;
63394;SDS011;49531;-34.520;150.798;2022-11-11T00:52:47;3.05;;;1.30;;
63394;SDS011;49531;-34.520;150.798;2022-11-11T00:55:16;3.53;;;1.20;;
63394;SDS011;49531;-34.520;150.798;2022-11-11T00:57:44;3.53;;;1.25;;
63394;SDS011;49531;-34.520;150.798;2022-11-11T01:00:12;3.13;;;1.20;;
63394;SDS011;49531;-34.520;150.798;2022-11-11T01:02:40;3.78;;;1.30;;
63394;SDS011;49531;-34.520;150.798;2022-11-11T01:05:08;5.85;;;1.50;;
63394;SDS011;49531;-34.520;150.798;2022-11-11T01:07:36;10.05;;;4.05;;
63394;SDS011;49531;-34.520;150.798;2022-11-11T01:10:04;5.28;;;1.45;;
63394;SDS011;49531;-34.520;150.798;2022-11-11T01:12:32;5.00;;;1.40;;
63394;SDS011;49531;-34.520;150.798;2022-11-11T01:15:00;2.53;;;1.30;;
63394;SDS011;49531;-34.520;150.798;2022-11-11T01:17:28;6.07;;;1.45;;
63394;SDS011;49531;-34.520;150.798;2022-11-11T01:19:56;4.60;;;1.30;;
63394;SDS011;49531;-34.520;150.798;2022-11-11T01:22:24;8.00;;;1.80;;
63394;SDS011;49531;-34.520;150.798;2022-11-11T01:24:54;8.27;;;1.50;;
63394;SDS011;49531;-34.520;150.798;2022-11-11T01:27:22;5.07;;;1.45;;
63394;SDS011;49531;-34.520;150.798;2022-11-11T01:29:50;5.35;;;1.33;;
63394;SDS011;49531;-34.520;150.798;2022-11-11T01:32:18;7.53;;;1.55;;
63394;SDS011;49531;-34.520;150.798;2022-11-11T01:34:46;6.88;;;1.30;;
63394;SDS011;49531;-34.520;150.798;2022-11-11T01:37:14;4.95;;;1.30;;
63394;SDS011;49531;-34.520;150.798;2022-11-11T01:39:42;14.90;;;1.50;;
63394;SDS011;49531;-34.520;150.798;2022-11-11T01:42:09;4.78;;;1.40;;
63394;SDS011;49531;-34.520;150.798;2022-11-11T01:44:39;6.43;;;1.52;;
63394;SDS011;49531;-34.520;150.798;2022-11-11T01:47:10;8.23;;;1.60;;
63394;SDS011;49531;-34.520;150.798;2022-11-11T01:49:43;3.97;;;1.40;;
63394;SDS011;49531;-34.520;150.798;2022-11-11T01:52:29;5.38;;;1.42;;
63394;SDS011;49531;-34.520;150.798;2022-11-11T01:55:01;9.10;;;1.50;;
63394;SDS011;49531;-34.520;150.798;2022-11-11T01:57:36;3.40;;;1.48;;
63394;SDS011;49531;-34.520;150.798;2022-11-11T02:00:09;3.63;;;1.30;;
63394;SDS011;49531;-34.520;150.798;2022-11-11T02:02:58;2.63;;;1.20;;
63394;SDS011;49531;-34.520;150.798;2022-11-11T02:05:31;7.82;;;1.40;;
63394;SDS011;49531;-34.520;150.798;2022-11-11T02:08:11;4.78;;;1.15;;
63394;SDS011;49531;-34.520;150.798;2022-11-11T02:10:58;5.72;;;1.30;;
63394;SDS011;49531;-34.520;150.798;2022-11-11T02:13:32;4.10;;;1.48;;
63394;SDS011;49531;-34.520;150.798;2022-11-11T02:18:43;6.45;;;1.50;;
63394;SDS011;49531;-34.520;150.798;2022-11-11T02:21:12;5.40;;;1.50;;
63394;SDS011;49531;-34.520;150.798;2022-11-11T02:23:56;9.45;;;1.60;;
63394;SDS011;49531;-34.520;150.798;2022-11-11T02:26:35;3.95;;;1.55;;
63394;SDS011;49531;-34.520;150.798;2022-11-11T02:29:07;8.07;;;1.45;;
63394;SDS011;49531;-34.520;150.798;2022-11-11T02:31:39;8.10;;;2.08;;
63394;SDS011;49531;-34.520;150.798;2022-11-11T02:34:07;7.15;;;1.50;;
63394;SDS011;49531;-34.520;150.798;2022-11-11T02:36:36;8.40;;;1.88;;
63394;SDS011;49531;-34.520;150.798;2022-11-11T02:39:06;8.23;;;1.60;;
63394;SDS011;49531;-34.520;150.798;2022-11-11T02:41:34;5.43;;;1.85;;
63394;SDS011;49531;-34.520;150.798;2022-11-11T02:44:13;13.18;;;1.90;;
63394;SDS011;49531;-34.520;150.798;2022-11-11T02:46:41;9.32;;;1.67;;
63394;SDS011;49531;-34.520;150.798;2022-11-11T02:49:10;6.45;;;1.92;;
63394;SDS011;49531;-34.520;150.798;2022-11-11T02:51:38;7.55;;;1.95;;
63394;SDS011;49531;-34.520;150.798;2022-11-11T02:54:06;6.28;;;2.08;;
63394;SDS011;49531;-34.520;150.798;2022-11-11T02:56:34;8.75;;;2.00;;
63394;SDS011;49531;-34.520;150.798;2022-11-11T02:59:14;4.95;;;2.03;;
63394;SDS011;49531;-34.520;150.798;2022-11-11T03:01:42;11.43;;;2.20;;
63394;SDS011;49531;-34.520;150.798;2022-11-11T03:04:10;9.73;;;2.03;;
63394;SDS011;49531;-34.520;150.798;2022-11-11T03:06:38;10.45;;;2.13;;
63394;SDS011;49531;-34.520;150.798;2022-11-11T03:09:06;9.32;;;2.30;;
63394;SDS011;49531;-34.520;150.798;2022-11-11T03:11:34;11.05;;;2.08;;
63394;SDS011;49531;-34.520;150.798;2022-11-11T03:14:03;8.90;;;2.00;;
63394;SDS011;49531;-34.520;150.798;2022-11-11T03:16:31;10.05;;;1.98;;
63394;SDS011;49531;-34.520;150.798;2022-11-11T03:19:11;9.40;;;2.20;;
63394;SDS011;49531;-34.520;150.798;2022-11-11T03:21:39;7.32;;;1.90;;
63394;SDS011;49531;-34.520;150.798;2022-11-11T03:24:07;6.10;;;2.05;;
63394;SDS011;49531;-34.520;150.798;2022-11-11T03:26:37;7.15;;;1.90;;
63394;SDS011;49531;-34.520;150.798;2022-11-11T03:29:06;6.63;;;1.75;;
63394;SDS011;49531;-34.520;150.798;2022-11-11T03:31:34;7.80;;;2.15;;
63394;SDS011;49531;-34.520;150.798;2022-11-11T03:34:02;10.52;;;1.67;;
63394;SDS011;49531;-34.520;150.798;2022-11-11T03:36:42;12.50;;;2.40;;
63394;SDS011;49531;-34.520;150.798;2022-11-11T03:39:30;10.98;;;2.10;;
63394;SDS011;49531;-34.520;150.798;2022-11-11T03:41:58;5.63;;;1.90;;
63394;SDS011;49531;-34.520;150.798;2022-11-11T03:44:26;3.85;;;1.65;;
63394;SDS011;49531;-34.520;150.798;2022-11-11T03:46:54;7.35;;;1.73;;
63394;SDS011;49531;-34.520;150.798;2022-11-11T03:49:22;10.57;;;1.80;;
63394;SDS011;49531;-34.520;150.798;2022-11-11T03:51:50;4.97;;;1.73;;
63394;SDS011;49531;-34.520;150.798;2022-11-11T03:54:18;4.40;;;1.42;;
63394;SDS011;49531;-34.520;150.798;2022-11-11T03:56:47;7.55;;;1.60;;
63394;SDS011;49531;-34.520;150.798;2022-11-11T03:59:15;5.40;;;1.70;;
63394;SDS011;49531;-34.520;150.798;2022-11-11T04:01:43;4.13;;;1.70;;
63394;SDS011;49531;-34.520;150.798;2022-11-11T04:04:23;7.13;;;1.90;;
63394;SDS011;49531;-34.520;150.798;2022-11-11T04:07:03;6.97;;;1.75;;
63394;SDS011;49531;-34.520;150.798;2022-11-11T04:09:42;4.13;;;1.67;;
63394;SDS011;49531;-34.520;150.798;2022-11-11T04:12:22;5.30;;;1.52;;
63394;SDS011;49531;-34.520;150.798;2022-11-11T04:14:50;4.57;;;1.60;;
63394;SDS011;49531;-34.520;150.798;2022-11-11T04:17:30;3.85;;;1.60;;
63394;SDS011;49531;-34.520;150.798;2022-11-11T04:19:58;3.92;;;1.60;;
63394;SDS011;49531;-34.520;150.798;2022-11-11T04:22:40;4.53;;;1.50;;
63394;SDS011;49531;-34.520;150.798;2022-11-11T04:25:08;7.07;;;1.60;;
63394;SDS011;49531;-34.520;150.798;2022-11-11T04:27:48;9.38;;;1.85;;
63394;SDS011;49531;-34.520;150.798;2022-11-11T04:30:36;4.65;;;1.55;;
63394;SDS011;49531;-34.520;150.798;2022-11-11T04:33:04;5.20;;;1.70;;
63394;SDS011;49531;-34.520;150.798;2022-11-11T04:35:32;4.30;;;1.58;;
63394;SDS011;49531;-34.520;150.798;2022-11-11T04:38:00;6.72;;;1.75;;
63394;SDS011;49531;-34.520;150.798;2022-11-11T04:40:40;6.97;;;1.70;;
63394;SDS011;49531;-34.520;150.798;2022-11-11T04:43:19;5.15;;;1.83;;
63394;SDS011;49531;-34.520;150.798;2022-11-11T04:45:47;8.13;;;1.67;;
63394;SDS011;49531;-34.520;150.798;2022-11-11T04:48:15;4.20;;;1.80;;
63394;SDS011;49531;-34.520;150.798;2022-11-11T04:50:44;5.40;;;1.70;;
63394;SDS011;49531;-34.520;150.798;2022-11-11T04:53:12;7.65;;;1.65;;
63394;SDS011;49531;-34.520;150.798;2022-11-11T04:55:42;7.10;;;1.58;;
63394;SDS011;49531;-34.520;150.798;2022-11-11T04:58:23;4.10;;;1.50;;
63394;SDS011;49531;-34.520;150.798;2022-11-11T05:00:53;7.85;;;1.73;;
63394;SDS011;49531;-34.520;150.798;2022-11-11T05:03:21;7.15;;;1.67;;
63394;SDS011;49531;-34.520;150.798;2022-11-11T05:05:51;5.65;;;1.60;;
63394;SDS011;49531;-34.520;150.798;2022-11-11T05:08:33;4.72;;;1.52;;
63394;SDS011;49531;-34.520;150.798;2022-11-11T05:11:14;7.30;;;1.80;;
63394;SDS011;49531;-34.520;150.798;2022-11-11T05:13:42;7.20;;;1.60;;
63394;SDS011;49531;-34.520;150.798;2022-11-11T05:16:23;10.63;;;2.10;;
63394;SDS011;49531;-34.520;150.798;2022-11-11T05:19:06;9.63;;;2.03;;
63394;SDS011;49531;-34.520;150.798;2022-11-11T05:21:50;7.43;;;1.90;;
63394;SDS011;49531;-34.520;150.798;2022-11-11T05:24:23;8.00;;;1.60;;
63394;SDS011;49531;-34.520;150.798;2022-11-11T05:27:02;14.40;;;2.10;;
63394;SDS011;49531;-34.520;150.798;2022-11-11T05:29:30;8.18;;;1.73;;
63394;SDS011;49531;-34.520;150.798;2022-11-11T05:32:00;6.10;;;1.98;;
63394;SDS011;49531;-34.520;150.798;2022-11-11T05:34:28;8.98;;;1.92;;
63394;SDS011;49531;-34.520;150.798;2022-11-11T05:36:56;8.13;;;1.88;;
63394;SDS011;49531;-34.520;150.798;2022-11-11T05:39:24;10.05;;;2.00;;
63394;SDS011;49531;-34.520;150.798;2022-11-11T05:41:52;12.15;;;2.00;;
63394;SDS011;49531;-34.520;150.798;2022-11-11T05:44:20;10.90;;;2.30;;
63394;SDS011;49531;-34.520;150.798;2022-11-11T05:46:48;11.55;;;1.98;;
63394;SDS011;49531;-34.520;150.798;2022-11-11T05:49:16;10.18;;;2.10;;
63394;SDS011;49531;-34.520;150.798;2022-11-11T05:51:45;12.63;;;2.30;;
63394;SDS011;49531;-34.520;150.798;2022-11-11T05:54:13;9.05;;;2.00;;
63394;SDS011;49531;-34.520;150.798;2022-11-11T05:56:41;10.90;;;2.03;;
63394;SDS011;49531;-34.520;150.798;2022-11-11T05:59:09;8.88;;;2.05;;
63394;SDS011;49531;-34.520;150.798;2022-11-11T06:01:38;7.88;;;2.20;;
63394;SDS011;49531;-34.520;150.798;2022-11-11T06:04:06;12.75;;;2.10;;
63394;SDS011;49531;-34.520;150.798;2022-11-11T06:06:34;7.13;;;2.17;;
63394;SDS011;49531;-34.520;150.798;2022-11-11T06:09:03;8.40;;;1.98;;
63394;SDS011;49531;-34.520;150.798;2022-11-11T06:11:32;7.90;;;2.13;;
63394;SDS011;49531;-34.520;150.798;2022-11-11T06:14:00;8.80;;;1.90;;
63394;SDS011;49531;-34.520;150.798;2022-11-11T06:16:27;8.77;;;1.95;;
63394;SDS011;49531;-34.520;150.798;2022-11-11T06:18:55;10.88;;;2.17;;
63394;SDS011;49531;-34.520;150.798;2022-11-11T06:21:25;9.88;;;2.22;;
63394;SDS011;49531;-34.520;150.798;2022-11-11T06:23:53;8.35;;;2.20;;
63394;SDS011;49531;-34.520;150.798;2022-11-11T06:26:21;9.70;;;2.50;;
63394;SDS011;49531;-34.520;150.798;2022-11-11T06:28:50;9.27;;;1.90;;
63394;SDS011;49531;-34.520;150.798;2022-11-11T06:31:22;14.63;;;2.05;;
63394;SDS011;49531;-34.520;150.798;2022-11-11T06:33:51;9.95;;;2.22;;
63394;SDS011;49531;-34.520;150.798;2022-11-11T06:36:20;12.13;;;2.08;;
63394;SDS011;49531;-34.520;150.798;2022-11-11T06:38:48;11.95;;;2.22;;
63394;SDS011;49531;-34.520;150.798;2022-11-11T06:41:16;8.15;;;1.90;;
63394;SDS011;49531;-34.520;150.798;2022-11-11T06:43:45;10.32;;;1.90;;
63394;SDS011;49531;-34.520;150.798;2022-11-11T06:46:17;6.40;;;2.17;;
63394;SDS011;49531;-34.520;150.798;2022-11-11T06:48:49;5.65;;;1.90;;
63394;SDS011;49531;-34.520;150.798;2022-11-11T06:51:17;10.95;;;1.95;;
63394;SDS011;49531;-34.520;150.798;2022-11-11T06:53:48;7.55;;;2.00;;
63394;SDS011;49531;-34.520;150.798;2022-11-11T06:56:16;9.52;;;2.10;;
63394;SDS011;49531;-34.520;150.798;2022-11-11T06:58:44;9.60;;;2.08;;
63394;SDS011;49531;-34.520;150.798;2022-11-11T07:01:13;6.60;;;2.00;;
63394;SDS011;49531;-34.520;150.798;2022-11-11T07:03:42;8.73;;;2.35;;
63394;SDS011;49531;-34.520;150.798;2022-11-11T07:06:10;6.07;;;1.92;;
63394;SDS011;49531;-34.520;150.798;2022-11-11T07:08:38;7.03;;;2.20;;
63394;SDS011;49531;-34.520;150.798;2022-11-11T07:11:09;6.13;;;1.90;;
63394;SDS011;49531;-34.520;150.798;2022-11-11T07:13:37;9.93;;;2.38;;
63394;SDS011;49531;-34.520;150.798;2022-11-11T07:16:05;4.47;;;1.80;;
63394;SDS011;49531;-34.520;150.798;2022-11-11T07:18:34;9.63;;;1.83;;
63394;SDS011;49531;-34.520;150.798;2022-11-11T07:21:03;6.55;;;2.25;;
63394;SDS011;49531;-34.520;150.798;2022-11-11T07:23:31;8.00;;;2.20;;
63394;SDS011;49531;-34.520;150.798;2022-11-11T07:25:59;6.93;;;2.13;;
63394;SDS011;49531;-34.520;150.798;2022-11-11T07:28:27;5.38;;;2.00;;
63394;SDS011;49531;-34.520;150.798;2022-11-11T07:30:55;9.40;;;2.38;;
63394;SDS011;49531;-34.520;150.798;2022-11-11T07:33:24;9.40;;;2.65;;
63394;SDS011;49531;-34.520;150.798;2022-11-11T07:35:53;6.30;;;2.50;;
63394;SDS011;49531;-34.520;150.798;2022-11-11T07:38:21;7.65;;;2.63;;
63394;SDS011;49531;-34.520;150.798;2022-11-11T07:40:49;4.97;;;2.35;;
63394;SDS011;49531;-34.520;150.798;2022-11-11T07:43:17;6.28;;;2.20;;
63394;SDS011;49531;-34.520;150.798;2022-11-11T07:45:45;8.55;;;2.45;;
63394;SDS011;49531;-34.520;150.798;2022-11-11T07:48:13;5.53;;;2.53;;
63394;SDS011;49531;-34.520;150.798;2022-11-11T07:50:41;4.10;;;2.13;;
63394;SDS011;49531;-34.520;150.798;2022-11-11T07:53:09;7.32;;;2.63;;
63394;SDS011;49531;-34.520;150.798;2022-11-11T07:55:37;6.57;;;2.50;;
63394;SDS011;49531;-34.520;150.798;2022-11-11T07:58:05;7.00;;;2.20;;
63394;SDS011;49531;-34.520;150.798;2022-11-11T08:00:33;4.88;;;2.28;;
63394;SDS011;49531;-34.520;150.798;2022-11-11T08:03:01;7.13;;;2.40;;
63394;SDS011;49531;-34.520;150.798;2022-11-11T08:05:30;8.30;;;2.50;;
63394;SDS011;49531;-34.520;150.798;2022-11-11T08:08:02;7.95;;;2.47;;
63394;SDS011;49531;-34.520;150.798;2022-11-11T08:10:32;7.97;;;2.65;;
63394;SDS011;49531;-34.520;150.798;2022-11-11T08:13:00;11.50;;;2.60;;
63394;SDS011;49531;-34.520;150.798;2022-11-11T08:15:40;7.05;;;2.50;;
63394;SDS011;49531;-34.520;150.798;2022-11-11T08:18:09;6.70;;;2.38;;
63394;SDS011;49531;-34.520;150.798;2022-11-11T08:20:37;7.63;;;2.60;;
63394;SDS011;49531;-34.520;150.798;2022-11-11T08:23:05;9.30;;;2.35;;
63394;SDS011;49531;-34.520;150.798;2022-11-11T08:25:35;8.85;;;2.42;;
63394;SDS011;49531;-34.520;150.798;2022-11-11T08:28:03;6.90;;;2.25;;
63394;SDS011;49531;-34.520;150.798;2022-11-11T08:30:35;8.60;;;2.50;;
63394;SDS011;49531;-34.520;150.798;2022-11-11T08:33:04;7.28;;;2.50;;
63394;SDS011;49531;-34.520;150.798;2022-11-11T08:35:33;7.55;;;2.35;;
63394;SDS011;49531;-34.520;150.798;2022-11-11T08:38:02;8.43;;;2.90;;
63394;SDS011;49531;-34.520;150.798;2022-11-11T08:40:30;6.32;;;2.35;;
63394;SDS011;49531;-34.520;150.798;2022-11-11T08:42:58;6.13;;;2.65;;
63394;SDS011;49531;-34.520;150.798;2022-11-11T08:45:26;7.65;;;2.75;;
63394;SDS011;49531;-34.520;150.798;2022-11-11T08:47:54;11.20;;;3.33;;
63394;SDS011;49531;-34.520;150.798;2022-11-11T08:50:22;5.72;;;2.20;;
63394;SDS011;49531;-34.520;150.798;2022-11-11T08:52:50;5.10;;;2.40;;
63394;SDS011;49531;-34.520;150.798;2022-11-11T08:55:18;8.45;;;2.40;;
63394;SDS011;49531;-34.520;150.798;2022-11-11T08:57:47;6.82;;;2.88;;
63394;SDS011;49531;-34.520;150.798;2022-11-11T09:00:22;8.98;;;2.90;;
63394;SDS011;49531;-34.520;150.798;2022-11-11T09:02:50;6.53;;;2.30;;
63394;SDS011;49531;-34.520;150.798;2022-11-11T09:05:18;5.93;;;2.28;;
63394;SDS011;49531;-34.520;150.798;2022-11-11T09:07:47;6.32;;;2.20;;
63394;SDS011;49531;-34.520;150.798;2022-11-11T09:10:15;7.40;;;2.60;;
63394;SDS011;49531;-34.520;150.798;2022-11-11T09:12:43;6.80;;;2.35;;
63394;SDS011;49531;-34.520;150.798;2022-11-11T09:15:11;7.47;;;2.40;;
63394;SDS011;49531;-34.520;150.798;2022-11-11T09:17:45;6.93;;;2.42;;
63394;SDS011;49531;-34.520;150.798;2022-11-11T09:20:13;6.55;;;2.60;;
63394;SDS011;49531;-34.520;150.798;2022-11-11T09:22:42;5.63;;;2.40;;
63394;SDS011;49531;-34.520;150.798;2022-11-11T09:25:11;6.93;;;2.35;;
63394;SDS011;49531;-34.520;150.798;2022-11-11T09:27:40;6.90;;;2.55;;
63394;SDS011;49531;-34.520;150.798;2022-11-11T09:30:09;6.40;;;2.80;;
63394;SDS011;49531;-34.520;150.798;2022-11-11T09:32:37;7.35;;;2.60;;
63394;SDS011;49531;-34.520;150.798;2022-11-11T09:35:05;6.28;;;2.50;;
63394;SDS011;49531;-34.520;150.798;2022-11-11T09:37:34;8.07;;;3.10;;
63394;SDS011;49531;-34.520;150.798;2022-11-11T09:40:03;8.77;;;2.67;;
63394;SDS011;49531;-34.520;150.798;2022-11-11T09:42:35;8.15;;;2.55;;
63394;SDS011;49531;-34.520;150.798;2022-11-11T09:48:16;7.38;;;2.90;;
63394;SDS011;49531;-34.520;150.798;2022-11-11T09:51:04;7.70;;;2.80;;
63394;SDS011;49531;-34.520;150.798;2022-11-11T09:53:45;7.38;;;2.65;;
63394;SDS011;49531;-34.520;150.798;2022-11-11T09:56:19;11.55;;;2.72;;
63394;SDS011;49531;-34.520;150.798;2022-11-11T09:58:51;6.88;;;2.78;;
63394;SDS011;49531;-34.520;150.798;2022-11-11T10:01:38;6.47;;;2.80;;
63394;SDS011;49531;-34.520;150.798;2022-11-11T10:04:26;6.53;;;2.78;;
63394;SDS011;49531;-34.520;150.798;2022-11-11T10:07:06;12.23;;;2.60;;
63394;SDS011;49531;-34.520;150.798;2022-11-11T10:09:53;6.22;;;2.70;;
63394;SDS011;49531;-34.520;150.798;2022-11-11T10:12:30;6.35;;;2.55;;
63394;SDS011;49531;-34.520;150.798;2022-11-11T10:15:09;5.32;;;2.58;;
63394;SDS011;49531;-34.520;150.798;2022-11-11T10:17:54;8.68;;;2.83;;
63394;SDS011;49531;-34.520;150.798;2022-11-11T10:20:45;6.35;;;2.80;;
63394;SDS011;49531;-34.520;150.798;2022-11-11T10:23:23;5.28;;;2.50;;
63394;SDS011;49531;-34.520;150.798;2022-11-11T10:26:00;9.25;;;2.78;;
63394;SDS011;49531;-34.520;150.798;2022-11-11T10:28:34;5.38;;;2.30;;
63394;SDS011;49531;-34.520;150.798;2022-11-11T10:31:03;5.22;;;2.50;;
63394;SDS011;49531;-34.520;150.798;2022-11-11T10:33:49;7.45;;;2.60;;
63394;SDS011;49531;-34.520;150.798;2022-11-11T10:36:21;4.80;;;2.30;;
63394;SDS011;49531;-34.520;150.798;2022-11-11T10:38:54;4.78;;;2.30;;
63394;SDS011;49531;-34.520;150.798;2022-11-11T10:41:30;6.60;;;2.45;;
63394;SDS011;49531;-34.520;150.798;2022-11-11T10:46:53;6.30;;;2.42;;
63394;SDS011;49531;-34.520;150.798;2022-11-11T10:49:32;4.82;;;2.47;;
63394;SDS011;49531;-34.520;150.798;2022-11-11T10:52:09;5.93;;;2.60;;
63394;SDS011;49531;-34.520;150.798;2022-11-11T10:54:48;6.00;;;2.60;;
63394;SDS011;49531;-34.520;150.798;2022-11-11T10:57:28;5.93;;;2.50;;
63394;SDS011;49531;-34.520;150.798;2022-11-11T11:00:09;6.72;;;2.70;;
63394;SDS011;49531;-34.520;150.798;2022-11-11T11:02:45;4.93;;;2.40;;
63394;SDS011;49531;-34.520;150.798;2022-11-11T11:05:36;4.18;;;2.50;;
63394;SDS011;49531;-34.520;150.798;2022-11-11T11:08:20;5.90;;;2.53;;
63394;SDS011;49531;-34.520;150.798;2022-11-11T11:10:54;4.93;;;2.40;;
63394;SDS011;49531;-34.520;150.798;2022-11-11T11:13:33;5.18;;;2.50;;
63394;SDS011;49531;-34.520;150.798;2022-11-11T11:16:14;7.25;;;2.15;;
63394;SDS011;49531;-34.520;150.798;2022-11-11T11:21:53;8.63;;;2.60;;
63394;SDS011;49531;-34.520;150.798;2022-11-11T11:26:57;4.93;;;2.45;;
63394;SDS011;49531;-34.520;150.798;2022-11-11T11:29:29;3.65;;;2.40;;
63394;SDS011;49531;-34.520;150.798;2022-11-11T11:32:10;4.65;;;2.55;;
63394;SDS011;49531;-34.520;150.798;2022-11-11T11:34:47;7.40;;;2.70;;
63394;SDS011;49531;-34.520;150.798;2022-11-11T11:37:19;8.57;;;2.90;;
63394;SDS011;49531;-34.520;150.798;2022-11-11T11:40:00;5.75;;;2.70;;
63394;SDS011;49531;-34.520;150.798;2022-11-11T11:42:32;6.43;;;2.40;;
63394;SDS011;49531;-34.520;150.798;2022-11-11T11:45:14;10.82;;;2.80;;
63394;SDS011;49531;-34.520;150.798;2022-11-11T11:48:01;7.05;;;2.85;;
63394;SDS011;49531;-34.520;150.798;2022-11-11T11:50:48;8.10;;;2.60;;
63394;SDS011;49531;-34.520;150.798;2022-11-11T11:53:41;5.70;;;2.50;;
63394;SDS011;49531;-34.520;150.798;2022-11-11T11:56:23;6.03;;;2.63;;
63394;SDS011;49531;-34.520;150.798;2022-11-11T11:59:13;4.25;;;2.10;;
63394;SDS011;49531;-34.520;150.798;2022-11-11T12:01:51;6.00;;;2.58;;
63394;SDS011;49531;-34.520;150.798;2022-11-11T12:04:30;4.32;;;2.40;;
63394;SDS011;49531;-34.520;150.798;2022-11-11T12:07:13;4.82;;;2.22;;
63394;SDS011;49531;-34.520;150.798;2022-11-11T12:10:09;4.85;;;2.40;;
63394;SDS011;49531;-34.520;150.798;2022-11-11T12:13:02;4.18;;;2.45;;
63394;SDS011;49531;-34.520;150.798;2022-11-11T12:15:40;4.43;;;2.28;;
63394;SDS011;49531;-34.520;150.798;2022-11-11T12:18:25;3.85;;;2.33;;
63394;SDS011;49531;-34.520;150.798;2022-11-11T12:21:18;4.20;;;2.17;;
63394;SDS011;49531;-34.520;150.798;2022-11-11T12:23:57;5.10;;;2.20;;
63394;SDS011;49531;-34.520;150.798;2022-11-11T12:26:48;5.55;;;2.20;;
63394;SDS011;49531;-34.520;150.798;2022-11-11T12:29:44;3.75;;;2.50;;
63394;SDS011;49531;-34.520;150.798;2022-11-11T12:33:12;3.90;;;2.20;;
63394;SDS011;49531;-34.520;150.798;2022-11-11T12:35:44;4.10;;;2.10;;
63394;SDS011;49531;-34.520;150.798;2022-11-11T12:38:37;4.03;;;2.10;;
63394;SDS011;49531;-34.520;150.798;2022-11-11T12:41:24;3.08;;;1.80;;
63394;SDS011;49531;-34.520;150.798;2022-11-11T12:44:08;6.25;;;2.42;;
63394;SDS011;49531;-34.520;150.798;2022-11-11T12:47:16;3.78;;;2.00;;
63394;SDS011;49531;-34.520;150.798;2022-11-11T12:49:42;4.03;;;2.25;;
63394;SDS011;49531;-34.520;150.798;2022-11-11T12:52:26;3.85;;;2.13;;
63394;SDS011;49531;-34.520;150.798;2022-11-11T12:55:27;3.03;;;2.00;;
63394;SDS011;49531;-34.520;150.798;2022-11-11T12:58:27;2.00;;;1.80;;
63394;SDS011;49531;-34.520;150.798;2022-11-11T13:01:19;2.55;;;2.00;;
63394;SDS011;49531;-34.520;150.798;2022-11-11T13:04:23;4.65;;;2.15;;
63394;SDS011;49531;-34.520;150.798;2022-11-11T13:07:04;2.58;;;1.90;;
63394;SDS011;49531;-34.520;150.798;2022-11-11T13:13:03;3.95;;;1.88;;
63394;SDS011;49531;-34.520;150.798;2022-11-11T13:15:50;2.83;;;1.88;;
63394;SDS011;49531;-34.520;150.798;2022-11-11T13:18:21;2.88;;;1.80;;
63394;SDS011;49531;-34.520;150.798;2022-11-11T13:20:57;3.60;;;1.88;;
63394;SDS011;49531;-34.520;150.798;2022-11-11T13:23:29;2.88;;;1.63;;
63394;SDS011;49531;-34.520;150.798;2022-11-11T13:25:59;3.25;;;1.90;;
63394;SDS011;49531;-34.520;150.798;2022-11-11T13:28:33;2.75;;;1.80;;
63394;SDS011;49531;-34.520;150.798;2022-11-11T13:31:10;3.25;;;1.98;;
63394;SDS011;49531;-34.520;150.798;2022-11-11T13:34:01;2.15;;;1.70;;
63394;SDS011;49531;-34.520;150.798;2022-11-11T13:36:41;2.72;;;1.75;;
63394;SDS011;49531;-34.520;150.798;2022-11-11T13:39:25;3.63;;;1.77;;
63394;SDS011;49531;-34.520;150.798;2022-11-11T13:41:57;3.25;;;1.77;;
63394;SDS011;49531;-34.520;150.798;2022-11-11T13:44:31;2.05;;;1.48;;
63394;SDS011;49531;-34.520;150.798;2022-11-11T13:47:04;2.83;;;1.65;;
63394;SDS011;49531;-34.520;150.798;2022-11-11T13:49:41;3.08;;;1.90;;
63394;SDS011;49531;-34.520;150.798;2022-11-11T13:52:19;4.13;;;1.60;;
63394;SDS011;49531;-34.520;150.798;2022-11-11T13:54:57;2.97;;;1.90;;
63394;SDS011;49531;-34.520;150.798;2022-11-11T13:57:30;2.42;;;1.75;;
63394;SDS011;49531;-34.520;150.798;2022-11-11T14:00:02;2.22;;;1.58;;
63394;SDS011;49531;-34.520;150.798;2022-11-11T14:02:33;1.52;;;1.42;;
63394;SDS011;49531;-34.520;150.798;2022-11-11T14:07:52;1.92;;;1.70;;
63394;SDS011;49531;-34.520;150.798;2022-11-11T14:13:34;1.98;;;1.67;;
63394;SDS011;49531;-34.520;150.798;2022-11-11T14:16:03;1.75;;;1.60;;
63394;SDS011;49531;-34.520;150.798;2022-11-11T14:18:36;2.97;;;1.52;;
63394;SDS011;49531;-34.520;150.798;2022-11-11T14:21:07;2.63;;;1.75;;
63394;SDS011;49531;-34.520;150.798;2022-11-11T14:23:37;2.03;;;1.60;;
63394;SDS011;49531;-34.520;150.798;2022-11-11T14:26:15;2.10;;;1.80;;
63394;SDS011;49531;-34.520;150.798;2022-11-11T14:28:51;2.25;;;1.60;;
63394;SDS011;49531;-34.520;150.798;2022-11-11T14:31:28;1.95;;;1.60;;
63394;SDS011;49531;-34.520;150.798;2022-11-11T14:37:15;2.33;;;1.70;;
63394;SDS011;49531;-34.520;150.798;2022-11-11T14:39:55;2.72;;;1.80;;
63394;SDS011;49531;-34.520;150.798;2022-11-11T14:42:41;1.95;;;1.73;;
63394;SDS011;49531;-34.520;150.798;2022-11-11T14:54:02;2.80;;;1.77;;
63394;SDS011;49531;-34.520;150.798;2022-11-11T14:56:40;1.80;;;1.52;;
63394;SDS011;49531;-34.520;150.798;2022-11-11T14:59:09;1.73;;;1.63;;
63394;SDS011;49531;-34.520;150.798;2022-11-11T15:01:39;1.60;;;1.50;;
63394;SDS011;49531;-34.520;150.798;2022-11-11T15:04:11;1.60;;;1.48;;
63394;SDS011;49531;-34.520;150.798;2022-11-11T15:06:45;1.65;;;1.50;;
63394;SDS011;49531;-34.520;150.798;2022-11-11T15:15:10;4.55;;;1.58;;
63394;SDS011;49531;-34.520;150.798;2022-11-11T15:17:56;1.95;;;1.60;;
63394;SDS011;49531;-34.520;150.798;2022-11-11T15:20:38;1.63;;;1.40;;
63394;SDS011;49531;-34.520;150.798;2022-11-11T15:23:32;1.50;;;1.40;;
63394;SDS011;49531;-34.520;150.798;2022-11-11T15:26:13;2.20;;;1.60;;
63394;SDS011;49531;-34.520;150.798;2022-11-11T15:29:04;1.77;;;1.40;;